This is the latest recevied weather packets stored in our database for station/object WB4E-13. If no packets are shown the sender has not sent any weather packets the latest 10 day(s).
| Time | Temp. | Humidity | Pressure | Rain* | Wind** | Luminosity | Snow |
|---|---|---|---|---|---|---|---|
| 1777747646 | 17.22° C | 34% | 1011.6 hPa | 0 mm | - | - | - |
| 1777747045 | 17.78° C | 36% | 1011.7 hPa | 0 mm | - | - | - |
| 1777746571 | 17.78° C | 35% | 1011.8 hPa | 0 mm | - | - | - |
| 1777746445 | 17.78° C | 35% | 1011.8 hPa | 0 mm | - | - | - |
| 1777745845 | 17.78° C | 37% | 1011.9 hPa | 0 mm | - | - | - |
| 1777745244 | 17.22° C | 35% | 1011.9 hPa | 0 mm | - | - | - |
| 1777744644 | 17.78° C | 38% | 1011.9 hPa | 0 mm | - | - | - |
| 1777744044 | 17.22° C | 37% | 1011.9 hPa | 0 mm | - | - | - |
| 1777743444 | 17.22° C | 41% | 1012.1 hPa | 0 mm | - | - | - |
| 1777742843 | 17.22° C | 38% | 1012.2 hPa | 0 mm | - | - | - |
| 1777742243 | 17.22° C | 38% | 1012.2 hPa | 0 mm | - | - | - |
| 1777741042 | 17.22° C | 42% | 1012.5 hPa | 0 mm | - | - | - |
| 1777740447 | 17.22° C | 39% | 1012.5 hPa | 0 mm | - | - | - |
| 1777686445 | 17.22° C | 54% | 1011 hPa | 0 mm | - | - | - |
| 1777685845 | 17.22° C | 52% | 1010.8 hPa | 0 mm | - | - | - |
| 1777685245 | 17.78° C | 51% | 1010.5 hPa | 0 mm | - | - | - |
| 1777684645 | 17.78° C | 51% | 1010.3 hPa | 0 mm | - | - | - |
| 1777684044 | 17.78° C | 50% | 1010.1 hPa | 0 mm | - | - | - |
| 1777683443 | 18.33° C | 50% | 1009.9 hPa | 0 mm | - | - | - |
| 1777682843 | 18.33° C | 48% | 1009.7 hPa | 0 mm | - | - | - |
| 1777682243 | 18.33° C | 47% | 1009.6 hPa | 0 mm | - | - | - |
| 1777681643 | 18.89° C | 47% | 1009.4 hPa | 0 mm | - | - | - |
| 1777681043 | 18.89° C | 48% | 1009.4 hPa | 0 mm | - | - | - |
| 1777680443 | 19.44° C | 48% | 1009.4 hPa | 0 mm | - | - | - |
| 1777679842 | 19.44° C | 46% | 1009.5 hPa | 0 mm | - | - | - |
* Rain latest hour (hover to see other rain measurements)
** Current wind speed in m/s (hover to see current wind gust speed)